createdAt,value
2019-04-14T00:02:40.775Z,28.23
2019-04-14T00:05:14.687Z,28.42
2019-04-14T00:07:44.934Z,26.87
2019-04-14T00:10:16.104Z,25.88
2019-04-14T00:12:46.938Z,25.80
2019-04-14T00:15:25.901Z,27.67
2019-04-14T00:17:48.129Z,24.80
2019-04-14T00:20:18.593Z,27.52
2019-04-14T00:22:49.057Z,27.22
2019-04-14T00:25:19.478Z,29.07
2019-04-14T00:27:50.000Z,27.90
2019-04-14T00:30:21.206Z,27.85
2019-04-14T00:32:55.167Z,28.05
2019-04-14T00:35:36.927Z,27.00
2019-04-14T00:38:28.242Z,32.33
2019-04-14T00:41:09.395Z,30.20
2019-04-14T00:43:47.097Z,27.30
2019-04-14T00:46:23.953Z,29.25
2019-04-14T00:48:53.967Z,26.70
2019-04-14T00:51:24.502Z,30.30
2019-04-14T00:53:54.154Z,32.63
2019-04-14T00:56:23.754Z,32.40
2019-04-14T00:58:53.921Z,28.57
2019-04-14T01:01:24.376Z,28.95
2019-04-14T01:03:54.763Z,31.20
2019-04-14T01:06:25.080Z,28.30
2019-04-14T01:08:55.425Z,29.18
2019-04-14T01:11:25.051Z,28.00
2019-04-14T01:13:55.076Z,34.95
2019-04-14T01:16:25.400Z,26.20
2019-04-14T01:18:56.465Z,28.40
2019-04-14T01:21:26.362Z,31.25
2019-04-14T01:23:56.611Z,30.43
2019-04-14T01:26:26.739Z,29.20
2019-04-14T01:28:56.806Z,30.65
2019-04-14T01:31:27.357Z,32.33
2019-04-14T01:33:57.615Z,29.25
2019-04-14T01:36:27.717Z,29.82
2019-04-14T01:38:58.161Z,31.27
2019-04-14T01:41:28.224Z,30.05
2019-04-14T01:43:58.247Z,33.10
2019-04-14T01:46:31.111Z,33.83
2019-04-14T01:49:00.624Z,29.10
2019-04-14T01:51:39.585Z,31.20
2019-04-14T01:54:21.322Z,35.75
2019-04-14T01:57:13.208Z,32.83
2019-04-14T01:59:43.803Z,34.33
2019-04-14T02:02:16.283Z,31.30
2019-04-14T02:04:46.453Z,34.08
2019-04-14T02:07:16.639Z,30.50
2019-04-14T02:09:46.879Z,31.87
2019-04-14T02:12:17.024Z,31.75
2019-04-14T02:14:47.398Z,30.85
2019-04-14T02:17:17.785Z,34.75
2019-04-14T02:19:48.104Z,31.62
2019-04-14T02:22:18.155Z,28.45
2019-04-14T02:24:48.169Z,30.35
2019-04-14T02:27:18.829Z,31.33
2019-04-14T02:29:49.500Z,30.92
2019-04-14T02:32:49.510Z,32.42
2019-04-14T02:37:58.565Z,31.87
2019-04-14T02:43:06.914Z,31.73
2019-04-14T02:45:33.184Z,31.07
2019-04-14T02:48:16.712Z,32.28
2019-04-14T02:53:01.880Z,31.55
2019-04-14T02:55:21.615Z,30.27
2019-04-14T02:58:04.426Z,30.43
2019-04-14T03:00:31.804Z,32.23
2019-04-14T03:02:56.294Z,38.60
2019-04-14T03:05:34.267Z,27.75
2019-04-14T03:10:39.862Z,29.70
2019-04-14T03:13:13.102Z,31.42
2019-04-14T03:15:43.867Z,28.55
2019-04-14T03:21:54.019Z,28.77
2019-04-14T03:24:12.798Z,28.12
2019-04-14T03:27:24.954Z,28.45
2019-04-14T03:42:22.918Z,31.77
2019-04-14T03:44:48.649Z,31.42
2019-04-14T03:47:22.095Z,28.05
2019-04-14T03:49:48.453Z,30.43
2019-04-14T03:52:27.597Z,33.20
2019-04-14T03:54:48.067Z,32.25
2019-04-14T03:56:56.016Z,30.95
2019-04-14T03:59:26.111Z,31.37
2019-04-14T04:01:56.612Z,30.12
2019-04-14T04:04:27.482Z,32.67
2019-04-14T04:06:57.536Z,32.23
2019-04-14T04:09:34.367Z,31.65
2019-04-14T04:12:05.176Z,27.98
2019-04-14T04:14:35.684Z,27.32
2019-04-14T04:17:18.989Z,27.20
2019-04-14T04:19:59.915Z,25.80
2019-04-14T04:22:47.653Z,30.00
2019-04-14T04:25:31.165Z,32.03
2019-04-14T04:28:25.707Z,28.15
2019-04-14T04:31:00.430Z,26.65
2019-04-14T04:33:37.291Z,29.20
2019-04-14T04:36:14.683Z,27.35
2019-04-14T04:38:57.455Z,28.98
2019-04-14T04:41:27.535Z,25.90
2019-04-14T04:43:58.184Z,29.27
2019-04-14T04:46:28.770Z,29.00
2019-04-14T04:49:08.199Z,26.65
2019-04-14T04:51:29.626Z,29.25
2019-04-14T04:53:59.443Z,29.55
2019-04-14T04:56:29.747Z,26.50
2019-04-14T04:58:59.623Z,27.73
2019-04-14T05:01:29.589Z,28.83
2019-04-14T05:04:00.330Z,29.30
2019-04-14T05:07:07.848Z,30.75
2019-04-14T05:10:08.882Z,29.90
2019-04-14T05:12:45.684Z,26.30
2019-04-14T05:15:34.312Z,23.62
2019-04-14T05:18:04.962Z,23.95
2019-04-14T05:20:35.557Z,25.40
2019-04-14T05:23:05.932Z,27.02
2019-04-14T05:25:36.557Z,24.37
2019-04-14T05:28:06.948Z,23.92
2019-04-14T05:30:37.179Z,25.85
2019-04-14T05:33:07.458Z,28.60
2019-04-14T05:35:38.009Z,24.50
2019-04-14T05:38:08.456Z,24.82
2019-04-14T05:40:38.575Z,24.98
2019-04-14T05:43:08.877Z,23.55
2019-04-14T05:45:39.538Z,23.38
2019-04-14T05:48:09.799Z,24.18
2019-04-14T05:50:40.085Z,23.20
2019-04-14T05:53:10.983Z,25.50
2019-04-14T05:55:41.626Z,20.35
2019-04-14T05:58:12.195Z,21.40
2019-04-14T06:00:44.673Z,21.00
2019-04-14T06:03:14.589Z,22.87
2019-04-14T06:05:45.050Z,22.25
2019-04-14T06:08:14.731Z,20.55
2019-04-14T06:10:44.236Z,22.32
2019-04-14T06:13:13.852Z,19.20
2019-04-14T06:15:43.401Z,21.95
2019-04-14T06:18:13.054Z,21.30
2019-04-14T06:20:42.615Z,22.60
2019-04-14T06:23:12.207Z,22.27
2019-04-14T06:25:41.780Z,20.60
2019-04-14T06:28:11.386Z,17.95
2019-04-14T06:30:58.245Z,19.77
2019-04-14T06:33:55.880Z,21.02
2019-04-14T06:36:44.291Z,18.57
2019-04-14T06:39:23.024Z,22.30
2019-04-14T06:41:52.604Z,19.32
2019-04-14T06:44:22.492Z,21.33
2019-04-14T06:46:52.090Z,19.20
2019-04-14T06:49:21.780Z,19.00
2019-04-14T06:51:51.857Z,16.23
2019-04-14T06:54:21.404Z,20.65
2019-04-14T06:56:51.300Z,20.37
2019-04-14T06:59:20.884Z,18.20
2019-04-14T07:01:50.537Z,19.42
2019-04-14T07:04:20.103Z,18.90
2019-04-14T07:06:51.408Z,17.75
2019-04-14T07:09:21.361Z,21.60
2019-04-14T07:11:51.182Z,20.95
2019-04-14T07:14:20.748Z,20.95
2019-04-14T07:16:51.485Z,17.10
2019-04-14T07:19:21.127Z,19.25
2019-04-14T07:21:50.750Z,20.05
2019-04-14T07:24:20.712Z,21.57
2019-04-14T07:26:50.289Z,22.93
2019-04-14T07:29:19.863Z,20.12
2019-04-14T07:32:08.363Z,19.45
2019-04-14T07:35:05.948Z,19.10
2019-04-14T07:37:50.336Z,21.93
2019-04-14T07:40:28.745Z,18.15
2019-04-14T07:43:08.446Z,17.62
2019-04-14T07:46:12.211Z,21.00
2019-04-14T07:48:53.726Z,19.42
2019-04-14T07:51:37.528Z,17.45
2019-04-14T07:54:28.751Z,17.73
2019-04-14T07:57:09.540Z,17.92
2019-04-14T07:59:50.242Z,16.50
2019-04-14T08:02:38.864Z,17.60
2019-04-14T08:05:14.531Z,19.00
2019-04-14T08:07:44.794Z,18.37
2019-04-14T08:10:14.463Z,17.12
2019-04-14T08:12:44.106Z,17.48
2019-04-14T08:15:14.184Z,21.12
2019-04-14T08:17:44.056Z,20.60
2019-04-14T08:20:26.463Z,18.48
2019-04-14T08:22:45.452Z,17.82
2019-04-14T08:25:15.371Z,22.80
2019-04-14T08:27:44.998Z,18.00
2019-04-14T08:30:14.851Z,17.35
2019-04-14T08:32:44.477Z,18.80
2019-04-14T08:35:14.040Z,20.68
2019-04-14T08:37:43.643Z,18.45
2019-04-14T08:40:13.298Z,18.05
2019-04-14T08:43:01.810Z,22.62
2019-04-14T08:45:40.226Z,19.27
2019-04-14T08:48:18.857Z,18.87
2019-04-14T08:51:07.581Z,17.35
2019-04-14T08:53:47.412Z,20.50
2019-04-14T08:56:37.942Z,15.78
2019-04-14T08:59:26.730Z,18.00
2019-04-14T09:02:12.133Z,20.37
2019-04-14T09:04:47.774Z,22.42
2019-04-14T09:07:36.247Z,17.40
2019-04-14T09:10:09.424Z,17.87
2019-04-14T09:12:40.448Z,21.77
2019-04-14T09:15:10.260Z,19.37
2019-04-14T09:17:39.911Z,20.25
2019-04-14T09:20:09.529Z,19.60
2019-04-14T09:22:39.143Z,24.72
2019-04-14T09:25:08.784Z,21.97
2019-04-14T09:27:38.405Z,20.45
2019-04-14T09:30:08.645Z,22.85
2019-04-14T09:32:38.271Z,18.95
2019-04-14T09:35:08.179Z,20.00
2019-04-14T09:37:37.815Z,18.45
2019-04-14T09:40:07.771Z,19.57
2019-04-14T09:42:37.660Z,20.92
2019-04-14T09:45:07.827Z,21.85
2019-04-14T09:47:37.419Z,17.67
2019-04-14T09:50:07.126Z,19.20
2019-04-14T09:52:37.024Z,17.87
2019-04-14T09:55:07.083Z,20.12
2019-04-14T09:57:36.700Z,20.02
2019-04-14T10:00:08.366Z,19.25
2019-04-14T10:02:38.048Z,16.97
2019-04-14T10:05:07.837Z,21.23
2019-04-14T10:07:37.504Z,22.48
2019-04-14T10:10:07.279Z,16.25
2019-04-14T10:12:37.406Z,18.87
2019-04-14T10:15:10.636Z,20.02
2019-04-14T10:17:40.261Z,19.48
2019-04-14T10:20:09.951Z,15.93
2019-04-14T10:22:39.612Z,19.42
2019-04-14T10:25:09.346Z,16.30
2019-04-14T10:27:39.003Z,17.12
2019-04-14T10:30:09.796Z,18.30
2019-04-14T10:32:39.429Z,17.77
2019-04-14T10:35:09.732Z,20.45
2019-04-14T10:37:39.393Z,18.60
2019-04-14T10:40:09.230Z,19.87
2019-04-14T10:42:38.846Z,19.55
2019-04-14T10:45:08.403Z,18.70
2019-04-14T10:47:38.009Z,18.67
2019-04-14T10:50:07.932Z,19.17
2019-04-14T10:52:37.590Z,19.40
2019-04-14T10:55:07.391Z,19.40
2019-04-14T10:57:37.319Z,20.65
2019-04-14T11:00:09.791Z,18.27
2019-04-14T11:02:39.682Z,19.10
2019-04-14T11:05:09.382Z,20.00
2019-04-14T11:07:38.917Z,18.27
2019-04-14T11:10:09.036Z,19.55
2019-04-14T11:12:38.606Z,20.57
2019-04-14T11:15:08.722Z,24.15
2019-04-14T11:17:38.282Z,17.37
2019-04-14T11:20:08.114Z,17.23
2019-04-14T11:22:37.666Z,17.67
2019-04-14T11:25:10.419Z,16.67
2019-04-14T11:27:43.023Z,18.35
2019-04-14T11:30:16.224Z,18.50
2019-04-14T11:32:54.029Z,18.60
2019-04-14T11:35:45.704Z,18.07
2019-04-14T11:38:28.036Z,18.98
2019-04-14T11:40:59.942Z,19.35
2019-04-14T11:43:29.539Z,17.57
2019-04-14T11:45:59.081Z,18.25
2019-04-14T11:48:28.689Z,19.95
2019-04-14T11:50:58.536Z,18.40
2019-04-14T11:53:28.150Z,17.82
2019-04-14T11:55:57.715Z,19.37
2019-04-14T11:58:29.114Z,18.37
2019-04-14T12:01:17.393Z,19.10
2019-04-14T12:04:18.060Z,18.65
2019-04-14T12:07:02.413Z,16.27
2019-04-14T12:09:44.067Z,17.70
2019-04-14T12:12:13.988Z,17.62
2019-04-14T12:14:43.561Z,17.32
2019-04-14T12:17:13.189Z,18.07
2019-04-14T12:19:43.036Z,19.90
2019-04-14T12:22:12.621Z,18.25
2019-04-14T12:24:42.288Z,19.05
2019-04-14T12:27:11.881Z,16.97
2019-04-14T12:29:43.368Z,15.55
2019-04-14T12:32:14.970Z,16.40
2019-04-14T12:34:44.686Z,16.48
2019-04-14T12:37:14.294Z,17.02
2019-04-14T12:39:44.202Z,16.15
2019-04-14T12:42:38.594Z,20.15
2019-04-14T12:45:26.949Z,16.60
2019-04-14T12:48:27.316Z,18.40
2019-04-14T12:51:09.412Z,17.95
2019-04-14T12:53:39.028Z,16.05
2019-04-14T12:56:08.600Z,15.80
2019-04-14T12:58:49.587Z,16.07
2019-04-14T13:01:19.760Z,16.62
2019-04-14T13:03:49.395Z,18.77
2019-04-14T13:06:18.978Z,18.05
2019-04-14T13:08:48.584Z,18.40
2019-04-14T13:11:18.416Z,16.25
2019-04-14T13:13:48.070Z,16.00
2019-04-14T13:16:18.036Z,18.75
2019-04-14T13:18:47.895Z,15.85
2019-04-14T13:21:17.485Z,17.98
2019-04-14T13:23:47.357Z,16.73
2019-04-14T13:26:16.968Z,16.70
2019-04-14T13:28:46.814Z,17.50
2019-04-14T13:31:16.449Z,17.15
2019-04-14T13:33:46.062Z,17.32
2019-04-14T13:36:15.665Z,19.02
2019-04-14T13:38:45.248Z,18.15
2019-04-14T13:41:14.807Z,18.95
2019-04-14T13:43:44.409Z,16.95
2019-04-14T13:46:14.286Z,17.32
2019-04-14T13:48:44.127Z,17.52
2019-04-14T13:51:13.766Z,16.12
2019-04-14T13:53:43.430Z,16.45
2019-04-14T13:56:13.029Z,16.75
2019-04-14T13:58:42.841Z,17.50
2019-04-14T14:01:12.415Z,15.88
2019-04-14T14:03:42.018Z,18.02
2019-04-14T14:06:11.564Z,18.25
2019-04-14T14:08:41.246Z,17.25
2019-04-14T14:11:19.215Z,16.07
2019-04-14T14:13:57.799Z,19.85
2019-04-14T14:16:53.718Z,20.35
2019-04-14T14:19:27.669Z,17.20
2019-04-14T14:22:10.847Z,18.70
2019-04-14T14:24:49.695Z,15.83
2019-04-14T14:27:19.290Z,18.00
2019-04-14T14:29:48.903Z,16.40
2019-04-14T14:32:30.640Z,16.97
2019-04-14T14:35:00.213Z,17.40
2019-04-14T14:37:29.837Z,16.67
2019-04-14T14:39:59.448Z,15.28
2019-04-14T14:42:29.040Z,16.67
2019-04-14T14:45:17.595Z,16.93
2019-04-14T14:47:55.572Z,15.48
2019-04-14T14:50:31.933Z,14.70
2019-04-14T14:53:11.558Z,14.50
2019-04-14T14:55:32.753Z,13.38
2019-04-14T14:58:02.639Z,14.95
2019-04-14T15:00:35.513Z,18.48
2019-04-14T15:03:05.168Z,17.65
2019-04-14T15:05:34.739Z,15.32
2019-04-14T15:08:04.341Z,30.12
2019-04-14T15:10:33.946Z,16.00
2019-04-14T15:13:03.544Z,14.58
2019-04-14T15:15:33.132Z,15.20
2019-04-14T15:18:02.779Z,15.58
2019-04-14T15:20:32.443Z,13.50
2019-04-14T15:23:02.314Z,12.70
2019-04-14T15:25:32.252Z,13.55
2019-04-14T15:28:01.828Z,11.28
2019-04-14T15:30:31.409Z,11.48
2019-04-14T15:33:00.969Z,12.47
2019-04-14T15:35:30.864Z,11.20
2019-04-14T15:38:00.475Z,11.12
2019-04-14T15:40:30.272Z,11.97
2019-04-14T15:42:59.918Z,11.60
2019-04-14T15:45:29.811Z,12.45
2019-04-14T15:47:59.445Z,13.10
2019-04-14T15:50:29.062Z,11.45
2019-04-14T15:52:58.660Z,11.97
2019-04-14T15:55:28.575Z,12.03
2019-04-14T15:58:03.830Z,11.80
2019-04-14T16:00:50.965Z,11.75
2019-04-14T16:03:39.483Z,11.78
2019-04-14T16:06:37.176Z,10.25
2019-04-14T16:09:20.201Z,11.10
2019-04-14T16:12:14.883Z,11.73
2019-04-14T16:14:53.296Z,11.20
2019-04-14T16:17:47.875Z,10.98
2019-04-14T16:20:20.807Z,10.95
2019-04-14T16:22:50.381Z,12.55
2019-04-14T16:25:20.938Z,9.95
2019-04-14T16:28:09.698Z,10.40
2019-04-14T16:30:56.782Z,9.53
2019-04-14T16:33:31.379Z,9.40
2019-04-14T16:36:01.196Z,9.75
2019-04-14T16:38:30.846Z,9.98
2019-04-14T16:41:00.499Z,9.90
2019-04-14T16:43:30.092Z,8.43
2019-04-14T16:45:59.670Z,8.28
2019-04-14T16:48:29.259Z,8.38
2019-04-14T16:50:59.957Z,7.12
2019-04-14T16:53:32.284Z,8.00
2019-04-14T16:56:35.743Z,7.80
2019-04-14T16:59:09.016Z,7.35
2019-04-14T17:01:40.803Z,8.13
2019-04-14T17:04:10.771Z,6.40
2019-04-14T17:06:40.326Z,5.75
2019-04-14T17:09:10.388Z,6.42
2019-04-14T17:11:39.960Z,7.10
2019-04-14T17:14:14.833Z,6.37
2019-04-14T17:17:06.351Z,6.80
2019-04-14T17:19:43.385Z,7.17
2019-04-14T17:22:40.936Z,7.05
2019-04-14T17:25:25.259Z,7.80
2019-04-14T17:28:16.964Z,6.25
2019-04-14T17:30:56.340Z,6.45
2019-04-14T17:33:44.865Z,6.40
2019-04-14T17:36:42.188Z,7.42
2019-04-14T17:39:33.740Z,6.87
2019-04-14T17:42:17.640Z,6.70
2019-04-14T17:45:06.188Z,6.20
2019-04-14T17:47:55.182Z,6.28
2019-04-14T17:50:46.390Z,5.22
2019-04-14T17:53:37.915Z,5.90
2019-04-14T17:56:17.801Z,7.42
2019-04-14T17:59:06.332Z,5.37
2019-04-14T18:01:54.822Z,5.92
2019-04-14T18:04:45.529Z,5.85
2019-04-14T18:07:32.651Z,5.60
2019-04-14T18:10:21.154Z,5.55
2019-04-14T18:13:05.967Z,5.30
2019-04-14T18:16:03.545Z,5.35
2019-04-14T18:19:04.210Z,5.15
2019-04-14T18:21:33.818Z,6.17
2019-04-14T18:24:03.709Z,4.83
2019-04-14T18:26:33.338Z,5.50
2019-04-14T18:29:20.574Z,5.37
2019-04-14T18:32:05.415Z,7.22
2019-04-14T18:34:59.712Z,6.33
2019-04-14T18:37:43.643Z,6.47
2019-04-14T18:40:17.220Z,6.37
2019-04-14T18:42:56.000Z,7.62
2019-04-14T18:45:32.368Z,8.30
2019-04-14T18:48:16.275Z,7.05
2019-04-14T18:51:10.570Z,6.60
2019-04-14T18:54:02.386Z,6.92
2019-04-14T18:56:49.185Z,8.48
2019-04-14T18:59:32.143Z,7.90
2019-04-14T19:02:01.965Z,8.38
2019-04-14T19:04:33.420Z,9.65
2019-04-14T19:07:03.000Z,9.30
2019-04-14T19:09:32.890Z,9.78
2019-04-14T19:12:21.482Z,9.20
2019-04-14T19:14:54.620Z,10.68
2019-04-14T19:17:45.903Z,12.15
2019-04-14T19:20:16.737Z,11.80
2019-04-14T19:22:46.377Z,11.12
2019-04-14T19:25:16.232Z,12.40
2019-04-14T19:27:46.101Z,12.15
2019-04-14T19:30:15.862Z,12.28
2019-04-14T19:32:45.468Z,12.40
2019-04-14T19:35:15.016Z,12.13
2019-04-14T19:37:44.890Z,12.55
2019-04-14T19:40:14.548Z,12.18
2019-04-14T19:42:44.140Z,12.00
2019-04-14T19:45:16.291Z,15.30
2019-04-14T19:47:45.871Z,12.80
2019-04-14T19:50:15.721Z,12.78
2019-04-14T19:52:45.349Z,12.80
2019-04-14T19:55:20.709Z,13.95
2019-04-14T19:57:46.136Z,15.43
2019-04-14T20:00:15.981Z,13.08
2019-04-14T20:02:45.511Z,15.28
2019-04-14T20:05:15.408Z,12.43
2019-04-14T20:07:44.944Z,13.72
2019-04-14T20:10:14.757Z,14.58
2019-04-14T20:12:44.374Z,13.85
2019-04-14T20:15:16.798Z,13.62
2019-04-14T20:18:17.388Z,13.45
2019-04-14T20:21:02.151Z,15.03
2019-04-14T20:23:45.036Z,15.55
2019-04-14T20:26:48.678Z,15.83
2019-04-14T20:29:27.659Z,15.03
2019-04-14T20:32:16.247Z,15.35
2019-04-14T20:34:45.888Z,14.55
2019-04-14T20:37:15.557Z,15.32
2019-04-14T20:39:45.674Z,15.48
2019-04-14T20:42:15.355Z,16.67
2019-04-14T20:44:45.137Z,16.60
2019-04-14T20:47:14.904Z,16.45
2019-04-14T20:49:44.437Z,17.20
2019-04-14T20:52:14.307Z,18.07
2019-04-14T20:54:43.922Z,16.30
2019-04-14T20:57:13.764Z,17.07
2019-04-14T20:59:43.314Z,18.60
2019-04-14T21:02:41.194Z,18.77
2019-04-14T21:05:29.803Z,16.77
2019-04-14T21:08:30.329Z,18.40
2019-04-14T21:11:07.107Z,19.07
2019-04-14T21:14:01.424Z,19.77
2019-04-14T21:16:44.687Z,21.57
2019-04-14T21:19:21.248Z,22.65
2019-04-14T21:22:12.758Z,19.10
2019-04-14T21:25:07.208Z,18.15
2019-04-14T21:28:01.456Z,18.17
2019-04-14T21:30:55.879Z,18.17
2019-04-14T21:33:53.308Z,18.48
2019-04-14T21:36:30.587Z,19.48
2019-04-14T21:39:14.525Z,19.73
2019-04-14T21:41:45.598Z,22.58
2019-04-14T21:44:15.166Z,21.70
2019-04-14T21:46:44.730Z,21.68
2019-04-14T21:49:14.290Z,25.15
2019-04-14T21:52:06.223Z,24.45
2019-04-14T21:54:35.845Z,25.27
2019-04-14T21:57:32.238Z,23.05
2019-04-14T22:00:23.548Z,23.95
2019-04-14T22:03:10.438Z,25.37
2019-04-14T22:05:49.077Z,23.70
2019-04-14T22:08:25.152Z,22.58
2019-04-14T22:11:00.005Z,25.37
2019-04-14T22:13:29.573Z,24.07
2019-04-14T22:15:59.375Z,24.00
2019-04-14T22:18:28.931Z,25.02
2019-04-14T22:20:58.530Z,24.43
2019-04-14T22:23:28.388Z,25.35
2019-04-14T22:25:58.200Z,26.23
2019-04-14T22:28:27.917Z,28.50
2019-04-14T22:30:57.525Z,25.37
2019-04-14T22:33:27.126Z,26.00
2019-04-14T22:35:56.803Z,24.57
2019-04-14T22:38:26.954Z,27.87
2019-04-14T22:40:56.798Z,26.35
2019-04-14T22:43:26.380Z,28.40
2019-04-14T22:45:55.964Z,28.15
2019-04-14T22:48:25.529Z,29.18
2019-04-14T22:50:55.140Z,29.07
2019-04-14T22:53:24.676Z,27.45
2019-04-14T22:55:54.633Z,27.93
2019-04-14T22:58:24.207Z,27.58
2019-04-14T23:01:12.727Z,26.77
2019-04-14T23:04:04.228Z,27.32
2019-04-14T23:06:52.728Z,27.62
2019-04-14T23:09:29.871Z,27.37
2019-04-14T23:12:36.573Z,27.22
2019-04-14T23:15:18.572Z,27.50
2019-04-14T23:18:13.146Z,29.87
2019-04-14T23:20:55.879Z,27.67
2019-04-14T23:23:44.366Z,28.23
2019-04-14T23:26:13.934Z,26.60
2019-04-14T23:28:44.088Z,29.05
2019-04-14T23:31:13.638Z,27.75
2019-04-14T23:33:43.280Z,29.63
2019-04-14T23:36:12.826Z,28.83
2019-04-14T23:38:42.437Z,27.35
2019-04-14T23:41:12.025Z,28.07
2019-04-14T23:43:41.637Z,29.57
2019-04-14T23:46:11.224Z,27.27
2019-04-14T23:48:40.813Z,28.35
2019-04-14T23:51:11.431Z,28.38
2019-04-14T23:53:41.039Z,28.05
2019-04-14T23:56:10.872Z,25.32
2019-04-14T23:58:40.460Z,29.87
